createdAt,value
2023-02-24T00:00:03.068Z,972.52
2023-02-24T00:01:03.119Z,972.52
2023-02-24T00:02:03.347Z,972.52
2023-02-24T00:03:03.340Z,972.39
2023-02-24T00:04:03.200Z,972.36
2023-02-24T00:05:03.377Z,972.52
2023-02-24T00:06:03.528Z,972.33
2023-02-24T00:07:03.537Z,972.45
2023-02-24T00:08:03.603Z,972.42
2023-02-24T00:09:03.596Z,972.42
2023-02-24T00:10:03.647Z,972.33
2023-02-24T00:11:03.590Z,972.33
2023-02-24T00:12:03.692Z,972.36
2023-02-24T00:13:03.767Z,972.39
2023-02-24T00:14:03.673Z,972.36
2023-02-24T00:15:03.743Z,972.39
2023-02-24T00:16:03.866Z,972.39
2023-02-24T00:17:03.139Z,972.31
2023-02-24T00:18:03.070Z,972.39
2023-02-24T00:19:03.268Z,972.42
2023-02-24T00:20:03.070Z,972.33
2023-02-24T00:21:03.039Z,972.22
2023-02-24T00:22:03.314Z,972.25
2023-02-24T00:23:03.190Z,972.25
2023-02-24T00:24:03.294Z,972.19
2023-02-24T00:25:03.312Z,972.30
2023-02-24T00:26:03.359Z,972.25
2023-02-24T00:27:03.477Z,972.28
2023-02-24T00:28:03.444Z,972.28
2023-02-24T00:29:03.467Z,972.28
2023-02-24T00:30:03.518Z,972.30
2023-02-24T00:31:03.828Z,972.30
2023-02-24T00:32:03.916Z,972.16
2023-02-24T00:33:03.962Z,972.13
2023-02-24T00:34:03.769Z,972.16
2023-02-24T00:35:03.669Z,972.33
2023-02-24T00:36:03.683Z,972.14
2023-02-24T00:37:03.742Z,972.22
2023-02-24T00:38:03.774Z,972.19
2023-02-24T00:39:03.869Z,972.16
2023-02-24T00:40:03.807Z,972.13
2023-02-24T00:41:02.926Z,972.28
2023-02-24T00:42:03.855Z,972.25
2023-02-24T00:43:03.028Z,972.08
2023-02-24T00:44:03.017Z,972.19
2023-02-24T00:45:02.932Z,972.16
2023-02-24T00:46:03.079Z,972.25
2023-02-24T00:47:02.998Z,972.05
2023-02-24T00:48:02.999Z,971.96
2023-02-24T00:49:02.916Z,972.02
2023-02-24T00:50:02.981Z,972.11
2023-02-24T00:51:02.929Z,972.05
2023-02-24T00:52:03.062Z,971.99
2023-02-24T00:53:03.092Z,972.16
2023-02-24T00:54:03.118Z,971.94
2023-02-24T00:55:03.114Z,972.05
2023-02-24T00:56:03.161Z,972.00
2023-02-24T00:57:03.256Z,972.00
2023-02-24T00:58:03.092Z,972.00
2023-02-24T00:59:03.065Z,971.97
2023-02-24T01:00:03.145Z,971.91
2023-02-24T01:01:03.100Z,971.91
2023-02-24T01:02:03.286Z,971.85
2023-02-24T01:03:03.167Z,971.88
2023-02-24T01:04:03.352Z,971.85
2023-02-24T01:05:03.272Z,972.00
2023-02-24T01:06:03.261Z,971.86
2023-02-24T01:07:03.187Z,972.03
2023-02-24T01:08:03.287Z,971.83
2023-02-24T01:09:03.313Z,971.83
2023-02-24T01:10:03.446Z,971.91
2023-02-24T01:11:03.585Z,971.81
2023-02-24T01:12:03.690Z,971.81
2023-02-24T01:13:03.515Z,971.75
2023-02-24T01:14:03.578Z,971.88
2023-02-24T01:15:03.614Z,971.81
2023-02-24T01:16:03.792Z,971.85
2023-02-24T01:17:03.665Z,971.83
2023-02-24T01:18:03.604Z,971.83
2023-02-24T01:19:03.693Z,971.86
2023-02-24T01:20:03.625Z,971.81
2023-02-24T01:21:03.695Z,971.81
2023-02-24T01:22:03.830Z,971.78
2023-02-24T01:23:03.822Z,971.97
2023-02-24T01:24:03.804Z,971.78
2023-02-24T01:25:02.947Z,971.76
2023-02-24T01:26:02.928Z,971.79
2023-02-24T01:27:03.011Z,971.67
2023-02-24T01:28:03.006Z,971.83
2023-02-24T01:29:03.060Z,971.82
2023-02-24T01:30:03.037Z,971.73
2023-02-24T01:31:03.215Z,971.68
2023-02-24T01:32:03.465Z,971.65
2023-02-24T01:33:03.441Z,971.60
2023-02-24T01:34:03.001Z,971.60
2023-02-24T01:35:02.945Z,971.65
2023-02-24T01:36:02.972Z,971.66
2023-02-24T01:37:03.000Z,971.71
2023-02-24T01:38:03.059Z,971.66
2023-02-24T01:39:03.074Z,971.66
2023-02-24T01:40:03.084Z,971.72
2023-02-24T01:41:03.098Z,971.58
2023-02-24T01:42:03.160Z,971.72
2023-02-24T01:43:03.339Z,971.64
2023-02-24T01:44:03.445Z,971.72
2023-02-24T01:45:03.544Z,971.61
2023-02-24T01:46:03.462Z,971.56
2023-02-24T01:47:03.536Z,971.50
2023-02-24T01:48:03.508Z,971.53
2023-02-24T01:49:03.605Z,971.50
2023-02-24T01:50:03.749Z,971.56
2023-02-24T01:51:03.733Z,971.51
2023-02-24T01:52:03.787Z,971.39
2023-02-24T01:53:03.844Z,971.57
2023-02-24T01:54:03.871Z,971.54
2023-02-24T01:55:03.899Z,971.48
2023-02-24T01:56:03.896Z,971.48
2023-02-24T01:57:02.963Z,971.48
2023-02-24T01:58:02.943Z,971.49
2023-02-24T01:59:03.944Z,971.57
2023-02-24T02:00:03.027Z,971.60
2023-02-24T02:01:02.980Z,971.55
2023-02-24T02:02:03.176Z,971.52
2023-02-24T02:03:03.314Z,971.46
2023-02-24T02:04:03.072Z,971.58
2023-02-24T02:05:03.098Z,971.41
2023-02-24T02:06:03.260Z,971.38
2023-02-24T02:07:03.280Z,971.27
2023-02-24T02:08:03.390Z,971.38
2023-02-24T02:09:03.482Z,971.24
2023-02-24T02:10:03.532Z,971.50
2023-02-24T02:11:03.479Z,971.33
2023-02-24T02:12:03.562Z,971.30
2023-02-24T02:13:03.429Z,971.36
2023-02-24T02:14:03.555Z,971.33
2023-02-24T02:15:03.431Z,971.28
2023-02-24T02:16:03.562Z,971.28
2023-02-24T02:17:03.618Z,971.25
2023-02-24T02:18:03.665Z,971.36
2023-02-24T02:19:03.637Z,971.31
2023-02-24T02:20:03.757Z,971.31
2023-02-24T02:21:03.751Z,971.28
2023-02-24T02:22:03.767Z,971.34
2023-02-24T02:23:03.773Z,971.28
2023-02-24T02:24:03.735Z,971.22
2023-02-24T02:25:03.779Z,971.22
2023-02-24T02:26:03.809Z,971.31
2023-02-24T02:27:03.876Z,971.28
2023-02-24T02:28:02.966Z,971.31
2023-02-24T02:29:03.040Z,971.22
2023-02-24T02:30:03.189Z,971.25
2023-02-24T02:31:03.522Z,971.20
2023-02-24T02:32:03.412Z,971.25
2023-02-24T02:33:03.169Z,971.25
2023-02-24T02:34:03.263Z,971.17
2023-02-24T02:35:03.230Z,971.37
2023-02-24T02:36:03.324Z,971.11
2023-02-24T02:37:03.341Z,971.23
2023-02-24T02:38:03.265Z,971.31
2023-02-24T02:39:03.192Z,971.23
2023-02-24T02:40:03.223Z,971.23
2023-02-24T02:41:03.349Z,971.14
2023-02-24T02:42:03.319Z,971.34
2023-02-24T02:43:03.335Z,971.23
2023-02-24T02:44:03.357Z,971.12
2023-02-24T02:45:03.486Z,971.23
2023-02-24T02:46:03.516Z,971.26
2023-02-24T02:47:03.489Z,971.23
2023-02-24T02:48:03.450Z,971.26
2023-02-24T02:49:03.527Z,971.12
2023-02-24T02:50:03.537Z,971.15
2023-02-24T02:51:03.476Z,971.21
2023-02-24T02:52:03.413Z,971.21
2023-02-24T02:53:03.360Z,971.12
2023-02-24T02:54:03.363Z,971.21
2023-02-24T02:55:03.466Z,971.12
2023-02-24T02:56:03.582Z,971.24
2023-02-24T02:57:03.523Z,971.21
2023-02-24T02:58:03.489Z,971.15
2023-02-24T02:59:03.498Z,971.21
2023-02-24T03:00:03.465Z,971.07
2023-02-24T03:01:03.909Z,971.10
2023-02-24T03:02:03.617Z,971.10
2023-02-24T03:03:03.556Z,971.07
2023-02-24T03:04:03.656Z,971.13
2023-02-24T03:05:03.870Z,971.07
2023-02-24T03:06:03.606Z,971.13
2023-02-24T03:07:03.807Z,971.10
2023-02-24T03:08:03.712Z,971.01
2023-02-24T03:09:03.711Z,971.01
2023-02-24T03:10:03.642Z,970.90
2023-02-24T03:11:03.773Z,970.96
2023-02-24T03:12:03.792Z,970.96
2023-02-24T03:13:03.721Z,971.04
2023-02-24T03:14:03.670Z,970.93
2023-02-24T03:15:03.670Z,971.10
2023-02-24T03:16:03.727Z,971.01
2023-02-24T03:17:03.698Z,971.01
2023-02-24T03:18:03.779Z,970.93
2023-02-24T03:19:03.639Z,970.96
2023-02-24T03:20:04.570Z,970.84
2023-02-24T03:21:03.706Z,970.96
2023-02-24T03:22:03.604Z,970.96
2023-02-24T03:23:03.645Z,970.90
2023-02-24T03:24:03.577Z,970.90
2023-02-24T03:25:03.655Z,970.87
2023-02-24T03:26:03.641Z,970.90
2023-02-24T03:27:03.690Z,970.93
2023-02-24T03:28:03.731Z,970.96
2023-02-24T03:29:03.750Z,970.90
2023-02-24T03:30:03.739Z,970.84
2023-02-24T03:31:04.098Z,970.98
2023-02-24T03:32:04.039Z,970.81
2023-02-24T03:33:03.702Z,970.84
2023-02-24T03:34:03.841Z,970.84
2023-02-24T03:35:03.776Z,970.90
2023-02-24T03:36:03.788Z,970.84
2023-02-24T03:37:03.791Z,970.75
2023-02-24T03:38:03.684Z,970.81
2023-02-24T03:39:03.654Z,970.75
2023-02-24T03:40:03.652Z,970.70
2023-02-24T03:41:03.656Z,970.67
2023-02-24T03:42:03.704Z,970.78
2023-02-24T03:43:03.760Z,970.75
2023-02-24T03:44:03.862Z,970.78
2023-02-24T03:45:03.754Z,970.61
2023-02-24T03:46:03.911Z,970.70
2023-02-24T03:47:03.807Z,970.61
2023-02-24T03:48:03.750Z,970.76
2023-02-24T03:49:03.763Z,970.67
2023-02-24T03:50:03.730Z,970.64
2023-02-24T03:51:03.750Z,970.59
2023-02-24T03:52:03.710Z,970.70
2023-02-24T03:53:03.642Z,970.50
2023-02-24T03:54:03.647Z,970.56
2023-02-24T03:55:03.630Z,970.59
2023-02-24T03:56:03.552Z,970.50
2023-02-24T03:57:03.639Z,970.56
2023-02-24T03:58:03.516Z,970.56
2023-02-24T03:59:03.626Z,970.53
2023-02-24T04:00:03.705Z,970.64
2023-02-24T04:01:03.664Z,970.56
2023-02-24T04:02:03.625Z,970.70
2023-02-24T04:03:03.603Z,970.56
2023-02-24T04:04:03.747Z,970.64
2023-02-24T04:05:03.680Z,970.59
2023-02-24T04:06:03.711Z,970.61
2023-02-24T04:07:03.778Z,970.53
2023-02-24T04:08:03.684Z,970.56
2023-02-24T04:09:03.734Z,970.50
2023-02-24T04:10:03.669Z,970.53
2023-02-24T04:11:03.656Z,970.56
2023-02-24T04:12:03.758Z,970.56
2023-02-24T04:13:03.861Z,970.40
2023-02-24T04:14:03.724Z,970.50
2023-02-24T04:15:03.710Z,970.47
2023-02-24T04:16:03.930Z,970.40
2023-02-24T04:17:03.847Z,970.40
2023-02-24T04:18:03.831Z,970.47
2023-02-24T04:19:03.859Z,970.50
2023-02-24T04:20:03.896Z,970.34
2023-02-24T04:21:03.851Z,970.40
2023-02-24T04:22:03.819Z,970.29
2023-02-24T04:23:03.788Z,970.29
2023-02-24T04:24:03.830Z,970.34
2023-02-24T04:25:03.750Z,970.34
2023-02-24T04:26:03.778Z,970.40
2023-02-24T04:27:03.813Z,970.37
2023-02-24T04:28:03.746Z,970.40
2023-02-24T04:29:03.746Z,970.37
2023-02-24T04:30:03.738Z,970.35
2023-02-24T04:31:03.925Z,970.35
2023-02-24T04:32:04.244Z,970.29
2023-02-24T04:33:03.808Z,970.35
2023-02-24T04:34:03.902Z,970.42
2023-02-24T04:35:03.831Z,970.32
2023-02-24T04:36:03.880Z,970.23
2023-02-24T04:37:03.914Z,970.23
2023-02-24T04:38:02.911Z,970.38
2023-02-24T04:39:02.956Z,970.29
2023-02-24T04:40:03.943Z,970.18
2023-02-24T04:41:03.843Z,970.26
2023-02-24T04:42:03.735Z,970.26
2023-02-24T04:43:03.817Z,970.26
2023-02-24T04:44:03.819Z,970.26
2023-02-24T04:45:03.767Z,970.32
2023-02-24T04:46:03.906Z,970.26
2023-02-24T04:47:02.957Z,970.24
2023-02-24T04:48:03.086Z,970.32
2023-02-24T04:49:03.053Z,970.40
2023-02-24T04:50:03.164Z,970.04
2023-02-24T04:51:03.048Z,970.29
2023-02-24T04:52:03.102Z,970.24
2023-02-24T04:53:03.182Z,970.26
2023-02-24T04:54:03.181Z,970.04
2023-02-24T04:55:03.148Z,970.01
2023-02-24T04:56:03.134Z,970.04
2023-02-24T04:57:03.178Z,970.04
2023-02-24T04:58:03.180Z,970.04
2023-02-24T04:59:03.122Z,970.01
2023-02-24T05:00:03.217Z,970.13
2023-02-24T05:01:03.277Z,969.85
2023-02-24T05:02:03.231Z,969.96
2023-02-24T05:03:03.300Z,969.91
2023-02-24T05:04:03.414Z,969.85
2023-02-24T05:05:03.320Z,969.86
2023-02-24T05:06:03.327Z,969.77
2023-02-24T05:07:03.503Z,969.83
2023-02-24T05:08:03.621Z,969.83
2023-02-24T05:09:03.490Z,969.80
2023-02-24T05:10:03.568Z,969.77
2023-02-24T05:11:03.430Z,969.77
2023-02-24T05:12:03.453Z,969.74
2023-02-24T05:13:03.495Z,969.96
2023-02-24T05:14:03.602Z,969.75
2023-02-24T05:15:03.512Z,969.69
2023-02-24T05:16:03.650Z,969.69
2023-02-24T05:17:03.703Z,969.86
2023-02-24T05:18:03.692Z,969.69
2023-02-24T05:19:03.635Z,969.77
2023-02-24T05:20:03.676Z,969.72
2023-02-24T05:21:03.701Z,969.72
2023-02-24T05:22:03.705Z,969.69
2023-02-24T05:23:03.617Z,969.66
2023-02-24T05:24:03.680Z,969.80
2023-02-24T05:25:03.848Z,969.72
2023-02-24T05:26:02.929Z,969.83
2023-02-24T05:27:02.974Z,969.66
2023-02-24T05:28:02.962Z,969.80
2023-02-24T05:29:03.891Z,969.80
2023-02-24T05:30:02.932Z,969.80
2023-02-24T05:31:03.210Z,969.69
2023-02-24T05:32:03.532Z,969.66
2023-02-24T05:33:03.165Z,969.66
2023-02-24T05:34:03.311Z,969.66
2023-02-24T05:35:03.262Z,969.55
2023-02-24T05:36:03.950Z,969.61
2023-02-24T05:37:03.284Z,969.52
2023-02-24T05:38:03.247Z,969.55
2023-02-24T05:39:03.219Z,969.44
2023-02-24T05:40:03.345Z,969.50
2023-02-24T05:41:03.338Z,969.41
2023-02-24T05:42:03.427Z,969.44
2023-02-24T05:43:03.476Z,969.41
2023-02-24T05:44:03.509Z,969.47
2023-02-24T05:45:03.467Z,969.36
2023-02-24T05:46:03.505Z,969.36
2023-02-24T05:47:03.642Z,969.44
2023-02-24T05:48:03.600Z,969.30
2023-02-24T05:49:03.596Z,969.50
2023-02-24T05:50:03.470Z,969.44
2023-02-24T05:51:05.525Z,969.44
2023-02-24T05:52:03.545Z,969.36
2023-02-24T05:53:03.542Z,969.38
2023-02-24T05:54:03.563Z,969.55
2023-02-24T05:55:03.639Z,969.50
2023-02-24T05:56:03.740Z,969.55
2023-02-24T05:57:03.736Z,969.44
2023-02-24T05:58:03.760Z,969.47
2023-02-24T05:59:03.909Z,969.47
2023-02-24T06:00:03.868Z,969.53
2023-02-24T06:01:03.849Z,969.39
2023-02-24T06:02:03.883Z,969.44
2023-02-24T06:03:04.062Z,969.50
2023-02-24T06:04:03.810Z,969.47
2023-02-24T06:05:03.942Z,969.33
2023-02-24T06:06:03.892Z,969.41
2023-02-24T06:07:03.012Z,969.47
2023-02-24T06:08:03.924Z,969.50
2023-02-24T06:09:03.948Z,969.44
2023-02-24T06:10:03.956Z,969.50
2023-02-24T06:11:03.882Z,969.33
2023-02-24T06:12:03.165Z,969.42
2023-02-24T06:13:03.013Z,969.44
2023-02-24T06:14:03.061Z,969.36
2023-02-24T06:15:03.020Z,969.33
2023-02-24T06:16:03.005Z,969.42
2023-02-24T06:17:03.086Z,969.42
2023-02-24T06:18:03.173Z,969.42
2023-02-24T06:19:02.925Z,969.33
2023-02-24T06:20:03.080Z,969.44
2023-02-24T06:21:03.045Z,969.33
2023-02-24T06:22:03.031Z,969.39
2023-02-24T06:23:03.063Z,969.30
2023-02-24T06:24:03.050Z,969.39
2023-02-24T06:25:02.951Z,969.33
2023-02-24T06:26:02.954Z,969.33
2023-02-24T06:27:03.062Z,969.39
2023-02-24T06:28:03.046Z,969.44
2023-02-24T06:29:03.028Z,969.44
2023-02-24T06:30:03.074Z,969.33
2023-02-24T06:31:03.313Z,969.28
2023-02-24T06:32:03.175Z,969.25
2023-02-24T06:33:03.075Z,969.45
2023-02-24T06:34:03.134Z,969.42
2023-02-24T06:35:03.144Z,969.45
2023-02-24T06:36:03.097Z,969.45
2023-02-24T06:37:02.988Z,969.33
2023-02-24T06:38:03.046Z,969.42
2023-02-24T06:39:03.900Z,969.33
2023-02-24T06:40:03.022Z,969.36
2023-02-24T06:41:03.874Z,969.36
2023-02-24T06:42:03.921Z,969.25
2023-02-24T06:43:03.857Z,969.22
2023-02-24T06:44:03.872Z,969.25
2023-02-24T06:45:02.911Z,969.28
2023-02-24T06:46:03.041Z,969.28
2023-02-24T06:47:02.982Z,969.25
2023-02-24T06:48:03.080Z,969.22
2023-02-24T06:49:03.100Z,969.25
2023-02-24T06:50:03.156Z,969.22
2023-02-24T06:51:03.068Z,969.25
2023-02-24T06:52:03.087Z,969.28
2023-02-24T06:53:03.055Z,969.22
2023-02-24T06:54:03.113Z,969.30
2023-02-24T06:55:02.971Z,969.30
2023-02-24T06:56:03.028Z,969.14
2023-02-24T06:57:03.128Z,969.16
2023-02-24T06:58:03.116Z,969.25
2023-02-24T06:59:03.321Z,969.08
2023-02-24T07:00:03.412Z,969.13
2023-02-24T07:01:03.373Z,969.08
2023-02-24T07:02:03.465Z,969.16
2023-02-24T07:03:03.397Z,969.05
2023-02-24T07:04:03.719Z,969.19
2023-02-24T07:05:03.616Z,969.13
2023-02-24T07:06:03.606Z,969.19
2023-02-24T07:07:04.068Z,969.13
2023-02-24T07:08:03.646Z,969.13
2023-02-24T07:09:03.680Z,969.11
2023-02-24T07:10:03.648Z,969.22
2023-02-24T07:11:03.691Z,969.08
2023-02-24T07:12:03.666Z,968.99
2023-02-24T07:13:03.721Z,969.22
2023-02-24T07:14:03.786Z,968.99
2023-02-24T07:15:03.748Z,969.08
2023-02-24T07:16:03.724Z,969.08
2023-02-24T07:17:04.025Z,969.10
2023-02-24T07:18:03.144Z,969.02
2023-02-24T07:19:03.244Z,968.99
2023-02-24T07:20:03.408Z,968.99
2023-02-24T07:21:03.598Z,968.93
2023-02-24T07:22:03.877Z,969.02
2023-02-24T07:23:03.406Z,969.13
2023-02-24T07:24:03.359Z,968.93
2023-02-24T07:25:03.391Z,969.05
2023-02-24T07:26:03.368Z,969.05
2023-02-24T07:27:03.364Z,968.88
2023-02-24T07:28:03.566Z,969.02
2023-02-24T07:29:03.609Z,968.96
2023-02-24T07:30:03.507Z,969.02
2023-02-24T07:31:03.657Z,968.93
2023-02-24T07:32:04.349Z,968.96
2023-02-24T07:33:03.496Z,969.02
2023-02-24T07:34:03.499Z,968.90
2023-02-24T07:35:03.599Z,968.88
2023-02-24T07:36:03.478Z,968.85
2023-02-24T07:37:03.542Z,968.82
2023-02-24T07:38:03.555Z,968.85
2023-02-24T07:39:03.454Z,968.82
2023-02-24T07:40:03.449Z,968.71
2023-02-24T07:41:03.293Z,968.79
2023-02-24T07:42:03.464Z,968.66
2023-02-24T07:43:03.484Z,968.85
2023-02-24T07:44:03.801Z,968.73
2023-02-24T07:45:03.767Z,968.69
2023-02-24T07:46:03.918Z,968.82
2023-02-24T07:47:03.830Z,968.66
2023-02-24T07:48:03.759Z,968.79
2023-02-24T07:49:03.820Z,968.66
2023-02-24T07:50:03.798Z,968.54
2023-02-24T07:51:03.819Z,968.60
2023-02-24T07:52:03.878Z,968.57
2023-02-24T07:53:04.007Z,968.65
2023-02-24T07:54:02.997Z,968.71
2023-02-24T07:55:03.918Z,968.51
2023-02-24T07:56:03.044Z,968.60
2023-02-24T07:57:03.045Z,968.48
2023-02-24T07:58:03.072Z,968.59
2023-02-24T07:59:03.088Z,968.54
2023-02-24T08:00:03.129Z,968.54
2023-02-24T08:01:03.095Z,968.57
2023-02-24T08:02:03.101Z,968.49
2023-02-24T08:03:03.195Z,968.43
2023-02-24T08:04:03.173Z,968.43
2023-02-24T08:05:03.251Z,968.55
2023-02-24T08:06:03.416Z,968.61
2023-02-24T08:07:03.870Z,968.61
2023-02-24T08:08:03.380Z,968.47
2023-02-24T08:09:03.189Z,968.61
2023-02-24T08:10:03.222Z,968.56
2023-02-24T08:11:03.420Z,968.64
2023-02-24T08:12:03.298Z,968.53
2023-02-24T08:13:03.344Z,968.59
2023-02-24T08:14:03.208Z,968.56
2023-02-24T08:15:03.176Z,968.54
2023-02-24T08:16:03.261Z,968.54
2023-02-24T08:17:03.284Z,968.60
2023-02-24T08:18:03.140Z,968.52
2023-02-24T08:19:03.240Z,968.46
2023-02-24T08:20:03.228Z,968.38
2023-02-24T08:21:03.275Z,968.38
2023-02-24T08:22:03.408Z,968.35
2023-02-24T08:23:03.329Z,968.30
2023-02-24T08:24:03.237Z,968.41
2023-02-24T08:25:03.223Z,968.47
2023-02-24T08:26:03.226Z,968.30
2023-02-24T08:27:03.204Z,968.47
2023-02-24T08:28:09.765Z,968.39
2023-02-24T08:29:03.114Z,968.42
2023-02-24T08:30:03.243Z,968.36
2023-02-24T08:31:03.397Z,968.37
2023-02-24T08:32:03.323Z,968.29
2023-02-24T08:33:03.013Z,968.43
2023-02-24T08:34:03.090Z,968.52
2023-02-24T08:35:03.179Z,968.52
2023-02-24T08:36:03.369Z,968.50
2023-02-24T08:37:03.188Z,968.47
2023-02-24T08:38:03.030Z,968.59
2023-02-24T08:39:03.024Z,968.47
2023-02-24T08:40:03.162Z,968.36
2023-02-24T08:41:02.996Z,968.45
2023-02-24T08:42:03.091Z,968.34
2023-02-24T08:43:02.970Z,968.48
2023-02-24T08:44:03.070Z,968.37
2023-02-24T08:45:02.982Z,968.29
2023-02-24T08:46:02.943Z,968.29
2023-02-24T08:47:03.127Z,968.43
2023-02-24T08:48:03.006Z,968.29
2023-02-24T08:49:02.990Z,968.32
2023-02-24T08:50:03.057Z,968.20
2023-02-24T08:51:02.953Z,968.31
2023-02-24T08:52:02.995Z,968.40
2023-02-24T08:53:03.029Z,968.20
2023-02-24T08:54:03.113Z,968.34
2023-02-24T08:55:03.020Z,968.26
2023-02-24T08:56:02.962Z,968.43
2023-02-24T08:57:03.101Z,968.23
2023-02-24T08:58:03.071Z,968.31
2023-02-24T08:59:02.993Z,968.37
2023-02-24T09:00:03.065Z,968.17
2023-02-24T09:01:03.222Z,968.31
2023-02-24T09:02:05.398Z,968.26
2023-02-24T09:03:02.987Z,968.26
2023-02-24T09:04:02.920Z,968.17
2023-02-24T09:05:03.205Z,968.20
2023-02-24T09:06:03.926Z,968.14
2023-02-24T09:07:12.272Z,968.25
2023-02-24T09:08:03.838Z,968.20
2023-02-24T09:09:03.928Z,968.28
2023-02-24T09:10:03.954Z,968.14
2023-02-24T09:11:03.910Z,968.25
2023-02-24T09:12:02.928Z,968.14
2023-02-24T09:13:04.002Z,968.14
2023-02-24T09:14:03.861Z,968.11
2023-02-24T09:15:03.822Z,968.11
2023-02-24T09:16:03.809Z,968.05
2023-02-24T09:17:04.252Z,968.13
2023-02-24T09:18:03.839Z,968.05
2023-02-24T09:19:03.685Z,968.10
2023-02-24T09:20:03.826Z,968.05
2023-02-24T09:21:03.776Z,968.05
2023-02-24T09:22:20.004Z,968.08
2023-02-24T09:23:04.115Z,968.10
2023-02-24T09:24:03.896Z,968.05
2023-02-24T09:25:03.839Z,967.99
2023-02-24T09:26:02.962Z,967.91
2023-02-24T09:27:03.126Z,967.96
2023-02-24T09:28:02.954Z,967.88
2023-02-24T09:29:02.962Z,967.96
2023-02-24T09:30:03.865Z,967.79
2023-02-24T09:31:03.107Z,967.85
2023-02-24T09:32:04.197Z,967.87
2023-02-24T09:33:04.256Z,967.85
2023-02-24T09:34:03.836Z,967.79
2023-02-24T09:35:03.866Z,967.76
2023-02-24T09:36:03.956Z,967.67
2023-02-24T09:37:04.097Z,967.84
2023-02-24T09:38:03.916Z,967.78
2023-02-24T09:39:03.859Z,967.70
2023-02-24T09:40:03.935Z,967.73
2023-02-24T09:41:19.169Z,967.72
2023-02-24T09:42:03.822Z,967.72
2023-02-24T09:43:03.819Z,967.67
2023-02-24T09:44:04.133Z,967.69
2023-02-24T09:45:03.836Z,967.66
2023-02-24T09:46:04.175Z,967.58
2023-02-24T09:47:02.997Z,967.58
2023-02-24T09:48:03.014Z,967.63
2023-02-24T09:49:03.046Z,967.49
2023-02-24T09:50:03.068Z,967.66
2023-02-24T09:51:05.452Z,967.75
2023-02-24T09:52:02.900Z,967.61
2023-02-24T09:53:11.726Z,967.69
2023-02-24T09:54:04.153Z,967.66
2023-02-24T09:55:02.988Z,967.55
2023-02-24T09:56:03.021Z,967.52
2023-02-24T09:57:03.129Z,967.61
2023-02-24T09:58:03.978Z,967.72
2023-02-24T09:59:02.998Z,967.44
2023-02-24T10:00:02.927Z,967.55
2023-02-24T10:01:03.084Z,967.49
2023-02-24T10:02:03.081Z,967.55
2023-02-24T10:03:03.008Z,967.49
2023-02-24T10:04:19.996Z,967.49
2023-02-24T10:05:03.069Z,967.33
2023-02-24T10:06:03.057Z,967.52
2023-02-24T10:07:03.083Z,967.41
2023-02-24T10:08:03.150Z,967.33
2023-02-24T10:09:03.186Z,967.30
2023-02-24T10:10:03.262Z,967.27
2023-02-24T10:11:03.232Z,967.35
2023-02-24T10:12:03.099Z,967.30
2023-02-24T10:13:03.206Z,967.33
2023-02-24T10:14:04.174Z,967.18
2023-02-24T10:15:03.218Z,967.24
2023-02-24T10:16:07.358Z,967.18
2023-02-24T10:17:03.461Z,967.24
2023-02-24T10:18:03.495Z,967.21
2023-02-24T10:19:03.421Z,967.18
2023-02-24T10:20:03.441Z,967.26
2023-02-24T10:21:03.542Z,967.18
2023-02-24T10:22:03.749Z,967.10
2023-02-24T10:23:03.537Z,967.15
2023-02-24T10:24:03.495Z,967.12
2023-02-24T10:25:03.446Z,967.07
2023-02-24T10:26:07.440Z,967.23
2023-02-24T10:27:09.093Z,967.12
2023-02-24T10:28:03.707Z,967.01
2023-02-24T10:29:03.802Z,967.07
2023-02-24T10:30:03.837Z,967.01
2023-02-24T10:31:04.200Z,966.96
2023-02-24T10:32:04.451Z,967.07
2023-02-24T10:33:03.136Z,966.93
2023-02-24T10:34:02.972Z,966.99
2023-02-24T10:35:03.107Z,966.96
2023-02-24T10:36:03.056Z,966.88
2023-02-24T10:37:03.062Z,966.85
2023-02-24T10:38:03.132Z,966.85
2023-02-24T10:39:03.122Z,966.85
2023-02-24T10:40:03.075Z,966.85
2023-02-24T10:41:03.116Z,966.96
2023-02-24T10:42:03.272Z,966.91
2023-02-24T10:43:03.098Z,966.88
2023-02-24T10:44:03.210Z,966.80
2023-02-24T10:45:09.653Z,966.79
2023-02-24T10:46:03.344Z,966.85
2023-02-24T10:47:03.478Z,966.62
2023-02-24T10:48:03.396Z,966.62
2023-02-24T10:49:03.404Z,966.60
2023-02-24T10:50:03.526Z,966.59
2023-02-24T10:51:03.530Z,966.59
2023-02-24T10:52:03.476Z,966.59
2023-02-24T10:53:03.514Z,966.50
2023-02-24T10:54:03.669Z,966.42
2023-02-24T10:55:03.513Z,966.47
2023-02-24T10:56:03.515Z,966.41
2023-02-24T10:57:03.576Z,966.35
2023-02-24T10:58:03.758Z,966.35
2023-02-24T10:59:03.805Z,966.32
2023-02-24T11:00:03.768Z,966.26
2023-02-24T11:01:03.948Z,966.36
2023-02-24T11:02:03.854Z,966.27
2023-02-24T11:03:03.909Z,966.21
2023-02-24T11:04:03.845Z,966.26
2023-02-24T11:05:03.962Z,966.15
2023-02-24T11:06:04.056Z,966.20
2023-02-24T11:07:03.851Z,966.08
2023-02-24T11:08:03.814Z,966.13
2023-02-24T11:09:03.868Z,966.07
2023-02-24T11:10:03.816Z,966.07
2023-02-24T11:11:03.879Z,966.07
2023-02-24T11:12:03.804Z,965.95
2023-02-24T11:13:10.618Z,965.95
2023-02-24T11:14:03.848Z,966.06
2023-02-24T11:15:02.966Z,966.12
2023-02-24T11:16:03.099Z,965.94
2023-02-24T11:17:03.118Z,965.97
2023-02-24T11:18:03.403Z,966.05
2023-02-24T11:19:03.170Z,965.94
2023-02-24T11:20:03.276Z,966.19
2023-02-24T11:21:03.449Z,966.13
2023-02-24T11:22:03.339Z,966.07
2023-02-24T11:23:03.299Z,966.10
2023-02-24T11:24:03.417Z,965.90
2023-02-24T11:25:03.490Z,966.01
2023-02-24T11:26:03.523Z,965.89
2023-02-24T11:27:05.369Z,966.03
2023-02-24T11:28:03.337Z,965.99
2023-02-24T11:29:03.389Z,965.82
2023-02-24T11:30:03.478Z,965.87
2023-02-24T11:31:03.674Z,965.79
2023-02-24T11:32:03.646Z,965.81
2023-02-24T11:33:03.361Z,965.81
2023-02-24T11:34:03.280Z,965.86
2023-02-24T11:35:03.306Z,965.95
2023-02-24T11:36:03.265Z,965.75
2023-02-24T11:37:03.253Z,965.75
2023-02-24T11:38:03.319Z,965.78
2023-02-24T11:39:20.052Z,965.92
2023-02-24T11:40:03.310Z,965.89
2023-02-24T11:41:03.290Z,965.86
2023-02-24T11:42:03.399Z,965.86
2023-02-24T11:43:03.373Z,965.88
2023-02-24T11:44:03.326Z,965.85
2023-02-24T11:45:03.422Z,965.65
2023-02-24T11:46:03.544Z,965.79
2023-02-24T11:47:03.310Z,965.71
2023-02-24T11:48:03.454Z,965.76
2023-02-24T11:49:03.337Z,965.73
2023-02-24T11:50:05.412Z,965.78
2023-02-24T11:51:03.427Z,965.57
2023-02-24T11:52:03.347Z,965.75
2023-02-24T11:53:03.379Z,965.64
2023-02-24T11:54:03.402Z,965.59
2023-02-24T11:55:03.476Z,965.66
2023-02-24T11:56:03.606Z,965.61
2023-02-24T11:57:03.503Z,965.66
2023-02-24T11:58:03.602Z,965.63
2023-02-24T11:59:03.628Z,965.56
2023-02-24T12:00:03.643Z,965.53
2023-02-24T12:01:03.656Z,965.58
2023-02-24T12:02:03.782Z,965.47
2023-02-24T12:03:04.620Z,965.50
2023-02-24T12:04:03.871Z,965.41
2023-02-24T12:05:02.972Z,965.50
2023-02-24T12:06:04.077Z,965.55
2023-02-24T12:07:03.042Z,965.41
2023-02-24T12:08:03.105Z,965.47
2023-02-24T12:09:03.065Z,965.58
2023-02-24T12:10:17.520Z,965.47
2023-02-24T12:11:03.043Z,965.38
2023-02-24T12:12:03.041Z,965.49
2023-02-24T12:13:03.156Z,965.52
2023-02-24T12:14:03.234Z,965.44
2023-02-24T12:15:03.165Z,965.50
2023-02-24T12:16:03.208Z,965.55
2023-02-24T12:17:03.190Z,965.52
2023-02-24T12:18:03.196Z,965.60
2023-02-24T12:19:03.130Z,965.77
2023-02-24T12:20:03.543Z,965.74
2023-02-24T12:21:03.221Z,965.72
2023-02-24T12:22:03.134Z,965.69
2023-02-24T12:23:03.118Z,965.59
2023-02-24T12:24:03.160Z,965.59
2023-02-24T12:25:03.083Z,965.66
2023-02-24T12:26:03.163Z,965.64
2023-02-24T12:27:03.205Z,965.78
2023-02-24T12:28:03.151Z,965.61